createdAt,value
2023-05-05T00:00:59.795Z,13.70
2023-05-05T00:03:27.188Z,13.70
2023-05-05T00:05:54.860Z,13.70
2023-05-05T00:08:22.360Z,13.60
2023-05-05T00:10:52.970Z,13.50
2023-05-05T00:13:22.768Z,13.50
2023-05-05T00:15:51.341Z,13.50
2023-05-05T00:18:18.891Z,13.50
2023-05-05T00:20:47.443Z,13.50
2023-05-05T00:23:16.049Z,13.40
2023-05-05T00:25:43.278Z,13.40
2023-05-05T00:28:10.602Z,13.30
2023-05-05T00:30:38.175Z,13.30
2023-05-05T00:33:05.146Z,13.30
2023-05-05T00:35:32.057Z,13.40
2023-05-05T00:37:59.614Z,13.40
2023-05-05T00:40:26.912Z,13.40
2023-05-05T00:42:53.985Z,13.40
2023-05-05T00:45:21.052Z,13.40
2023-05-05T00:47:59.384Z,13.50
2023-05-05T00:50:30.973Z,13.40
2023-05-05T00:53:07.458Z,13.40
2023-05-05T00:55:35.783Z,13.50
2023-05-05T00:58:04.296Z,13.40
2023-05-05T01:00:31.527Z,13.40
2023-05-05T01:02:59.184Z,13.40
2023-05-05T01:05:32.158Z,13.40
2023-05-05T01:08:42.170Z,13.40
2023-05-05T01:11:23.980Z,13.40
2023-05-05T01:14:20.660Z,13.40
2023-05-05T01:17:00.142Z,13.40
2023-05-05T01:20:15.777Z,13.40
2023-05-05T01:22:57.279Z,13.40
2023-05-05T01:26:00.451Z,13.30
2023-05-05T01:29:03.010Z,13.20
2023-05-05T01:31:57.091Z,13.20
2023-05-05T01:34:28.861Z,13.20
2023-05-05T01:37:22.330Z,13.10
2023-05-05T01:39:59.064Z,13.00
2023-05-05T01:42:27.881Z,13.00
2023-05-05T01:44:56.468Z,12.90
2023-05-05T01:47:24.794Z,12.90
2023-05-05T01:49:52.627Z,12.90
2023-05-05T01:52:20.579Z,12.90
2023-05-05T01:54:48.838Z,12.90
2023-05-05T01:57:16.728Z,12.90
2023-05-05T01:59:43.778Z,12.90
2023-05-05T02:02:12.336Z,12.80
2023-05-05T02:04:42.631Z,12.80
2023-05-05T02:07:11.690Z,12.70
2023-05-05T02:09:39.495Z,12.70
2023-05-05T02:12:08.024Z,12.70
2023-05-05T02:14:35.936Z,12.60
2023-05-05T02:17:04.289Z,12.60
2023-05-05T02:19:36.524Z,12.60
2023-05-05T02:22:03.514Z,12.60
2023-05-05T02:24:30.996Z,12.70
2023-05-05T02:26:59.816Z,12.70
2023-05-05T02:29:35.961Z,12.70
2023-05-05T02:32:18.363Z,12.80
2023-05-05T02:34:48.172Z,12.80
2023-05-05T02:37:21.437Z,12.70
2023-05-05T02:39:58.919Z,12.70
2023-05-05T02:42:34.225Z,12.70
2023-05-05T02:45:07.904Z,12.70
2023-05-05T02:47:38.079Z,12.70
2023-05-05T02:50:07.077Z,12.70
2023-05-05T02:52:35.236Z,12.70
2023-05-05T02:55:04.179Z,12.70
2023-05-05T02:57:44.744Z,12.70
2023-05-05T03:00:24.111Z,12.70
2023-05-05T03:03:34.552Z,12.70
2023-05-05T03:06:11.680Z,12.70
2023-05-05T03:08:50.270Z,12.70
2023-05-05T03:11:29.135Z,12.70
2023-05-05T03:14:05.607Z,12.70
2023-05-05T03:16:34.496Z,12.70
2023-05-05T03:19:03.230Z,12.80
2023-05-05T03:21:30.738Z,12.80
2023-05-05T03:23:58.364Z,12.80
2023-05-05T03:26:25.300Z,12.80
2023-05-05T03:28:52.217Z,12.90
2023-05-05T03:31:19.211Z,12.90
2023-05-05T03:33:46.129Z,12.90
2023-05-05T03:36:13.024Z,12.90
2023-05-05T03:38:39.885Z,13.00
2023-05-05T03:41:06.771Z,13.00
2023-05-05T03:43:33.616Z,13.00
2023-05-05T03:46:00.618Z,12.90
2023-05-05T03:48:27.797Z,12.90
2023-05-05T03:50:54.767Z,12.90
2023-05-05T03:53:21.660Z,12.90
2023-05-05T03:55:48.749Z,13.00
2023-05-05T03:58:15.602Z,13.10
2023-05-05T04:00:42.468Z,13.20
2023-05-05T04:03:09.644Z,13.20
2023-05-05T04:05:36.786Z,13.30
2023-05-05T04:08:03.874Z,13.40
2023-05-05T04:10:30.813Z,13.50
2023-05-05T04:12:57.741Z,13.60
2023-05-05T04:15:24.645Z,13.70
2023-05-05T04:17:51.692Z,13.80
2023-05-05T04:20:18.686Z,13.90
2023-05-05T04:22:46.152Z,13.90
2023-05-05T04:25:13.256Z,13.90
2023-05-05T04:27:40.127Z,14.00
2023-05-05T04:30:08.209Z,14.00
2023-05-05T04:32:35.642Z,14.10
2023-05-05T04:35:02.540Z,14.10
2023-05-05T04:37:29.484Z,14.10
2023-05-05T04:39:56.370Z,14.10
2023-05-05T04:42:23.430Z,14.20
2023-05-05T04:44:50.271Z,14.30
2023-05-05T04:47:17.231Z,14.40
2023-05-05T04:49:45.048Z,14.60
2023-05-05T04:52:14.866Z,14.70
2023-05-05T04:54:41.736Z,15.20
2023-05-05T04:57:08.713Z,15.50
2023-05-05T04:59:36.501Z,15.50
2023-05-05T05:02:03.413Z,15.50
2023-05-05T05:04:30.386Z,15.40
2023-05-05T05:06:59.122Z,15.40
2023-05-05T05:09:26.250Z,15.50
2023-05-05T05:11:54.712Z,15.60
2023-05-05T05:14:22.122Z,15.80
2023-05-05T05:16:52.382Z,15.90
2023-05-05T05:19:19.498Z,16.00
2023-05-05T05:21:46.385Z,16.10
2023-05-05T05:24:13.333Z,16.30
2023-05-05T05:26:40.255Z,16.40
2023-05-05T05:29:07.262Z,16.60
2023-05-05T05:31:34.668Z,16.70
2023-05-05T05:34:01.548Z,16.70
2023-05-05T05:36:28.593Z,16.70
2023-05-05T05:38:55.427Z,16.70
2023-05-05T05:41:22.344Z,16.80
2023-05-05T05:43:49.243Z,17.00
2023-05-05T05:46:16.210Z,17.10
2023-05-05T05:48:43.215Z,17.20
2023-05-05T05:51:10.120Z,17.10
2023-05-05T05:53:39.407Z,17.10
2023-05-05T05:56:06.844Z,17.10
2023-05-05T05:58:33.734Z,17.20
2023-05-05T06:01:00.666Z,17.10
2023-05-05T06:03:27.719Z,17.20
2023-05-05T06:05:54.652Z,17.20
2023-05-05T06:08:23.681Z,17.20
2023-05-05T06:10:52.048Z,17.30
2023-05-05T06:13:19.062Z,17.40
2023-05-05T06:15:46.335Z,17.60
2023-05-05T06:18:13.438Z,17.80
2023-05-05T06:20:40.385Z,18.00
2023-05-05T06:23:07.502Z,18.40
2023-05-05T06:25:34.377Z,18.90
2023-05-05T06:28:02.010Z,19.30
2023-05-05T06:30:29.073Z,19.80
2023-05-05T06:32:56.220Z,20.20
2023-05-05T06:35:23.133Z,20.40
2023-05-05T06:37:50.050Z,20.40
2023-05-05T06:40:17.070Z,20.50
2023-05-05T06:42:43.958Z,20.60
2023-05-05T06:45:11.654Z,20.70
2023-05-05T06:47:38.616Z,20.90
2023-05-05T06:50:07.255Z,21.00
2023-05-05T06:52:34.352Z,21.30
2023-05-05T06:55:01.582Z,21.40
2023-05-05T06:57:28.547Z,21.70
2023-05-05T06:59:55.983Z,21.70
2023-05-05T07:02:24.754Z,21.60
2023-05-05T07:04:55.404Z,21.30
2023-05-05T07:07:22.721Z,21.10
2023-05-05T07:09:49.650Z,21.00
2023-05-05T07:12:16.537Z,21.00
2023-05-05T07:14:43.446Z,21.10
2023-05-05T07:17:11.761Z,21.60
2023-05-05T07:19:38.730Z,21.90
2023-05-05T07:22:05.769Z,22.10
2023-05-05T07:24:32.669Z,22.40
2023-05-05T07:26:59.793Z,23.00
2023-05-05T07:29:26.838Z,23.60
2023-05-05T07:31:53.809Z,24.10
2023-05-05T07:34:20.658Z,24.30
2023-05-05T07:36:47.560Z,24.30
2023-05-05T07:39:15.374Z,24.40
2023-05-05T07:41:43.411Z,24.20
2023-05-05T07:44:10.415Z,24.20
2023-05-05T07:46:37.502Z,24.00
2023-05-05T07:49:04.470Z,24.10
2023-05-05T07:51:33.916Z,24.40
2023-05-05T07:54:01.471Z,24.70
2023-05-05T07:56:28.386Z,24.80
2023-05-05T07:58:55.716Z,24.80
2023-05-05T08:01:22.806Z,25.00
2023-05-05T08:03:49.712Z,25.50
2023-05-05T08:06:18.028Z,25.90
2023-05-05T08:08:44.922Z,25.60
2023-05-05T08:11:11.792Z,25.30
2023-05-05T08:13:39.305Z,25.00
2023-05-05T08:16:06.841Z,24.80
2023-05-05T08:18:35.457Z,25.00
2023-05-05T08:21:02.341Z,25.30
2023-05-05T08:23:29.433Z,25.70
2023-05-05T08:25:56.353Z,26.00
2023-05-05T08:28:23.466Z,26.40
2023-05-05T08:30:50.917Z,26.40
2023-05-05T08:33:18.034Z,26.30
2023-05-05T08:35:45.545Z,26.20
2023-05-05T08:38:12.674Z,26.30
2023-05-05T08:40:40.735Z,26.60
2023-05-05T08:43:07.978Z,26.90
2023-05-05T08:45:35.120Z,27.20
2023-05-05T08:48:04.178Z,26.90
2023-05-05T08:50:31.790Z,27.00
2023-05-05T08:53:31.065Z,26.60
2023-05-05T08:56:00.902Z,26.10
2023-05-05T08:58:29.466Z,26.10
2023-05-05T09:00:57.433Z,26.50
2023-05-05T09:03:27.386Z,26.70
2023-05-05T09:05:54.464Z,27.10
2023-05-05T09:08:21.661Z,27.00
2023-05-05T09:10:51.157Z,27.00
2023-05-05T09:13:21.187Z,27.20
2023-05-05T09:15:48.114Z,27.70
2023-05-05T09:18:15.052Z,27.90
2023-05-05T09:20:42.256Z,28.20
2023-05-05T09:23:16.972Z,28.30
2023-05-05T09:25:48.560Z,28.50
2023-05-05T09:28:17.147Z,27.90
2023-05-05T09:30:45.834Z,27.80
2023-05-05T09:33:13.678Z,27.90
2023-05-05T09:35:54.100Z,28.00
2023-05-05T09:38:22.824Z,28.10
2023-05-05T09:40:54.165Z,28.70
2023-05-05T09:43:23.685Z,28.70
2023-05-05T09:45:51.379Z,28.90
2023-05-05T09:48:26.440Z,28.80
2023-05-05T09:50:54.184Z,28.60
2023-05-05T09:53:21.547Z,28.00
2023-05-05T09:55:59.616Z,27.30
2023-05-05T09:58:28.269Z,27.40
2023-05-05T10:00:56.454Z,27.50
2023-05-05T10:03:24.051Z,27.50
2023-05-05T10:05:59.742Z,26.90
2023-05-05T10:08:28.957Z,26.50
2023-05-05T10:10:58.375Z,26.80
2023-05-05T10:13:26.184Z,27.30
2023-05-05T10:15:55.073Z,27.40
2023-05-05T10:18:27.502Z,27.20
2023-05-05T10:21:02.466Z,27.20
2023-05-05T10:23:39.605Z,27.30
2023-05-05T10:26:07.841Z,27.30
2023-05-05T10:28:42.202Z,27.10
2023-05-05T10:31:26.278Z,27.10
2023-05-05T10:34:06.072Z,26.90
2023-05-05T10:36:33.549Z,26.30
2023-05-05T10:39:01.143Z,26.20
2023-05-05T10:41:31.003Z,26.30
2023-05-05T10:44:00.013Z,26.20
2023-05-05T10:46:29.528Z,26.30
2023-05-05T10:49:32.050Z,26.60
2023-05-05T10:52:22.883Z,26.90
2023-05-05T10:55:11.563Z,26.60
2023-05-05T10:57:42.453Z,26.50
2023-05-05T11:00:10.281Z,26.80
2023-05-05T11:02:37.691Z,26.60
2023-05-05T11:05:26.254Z,26.10
2023-05-05T11:07:53.228Z,25.70
2023-05-05T11:10:21.205Z,25.50
2023-05-05T11:13:17.998Z,25.40
2023-05-05T11:15:45.174Z,25.80
2023-05-05T11:18:44.567Z,26.00
2023-05-05T11:21:16.653Z,25.70
2023-05-05T11:23:49.030Z,25.30
2023-05-05T11:26:17.678Z,25.30
2023-05-05T11:29:05.411Z,25.50
2023-05-05T11:31:33.920Z,25.30
2023-05-05T11:34:33.106Z,25.20
2023-05-05T11:37:07.745Z,25.10
2023-05-05T11:40:14.396Z,25.20
2023-05-05T11:42:41.418Z,25.20
2023-05-05T11:45:26.374Z,25.40
2023-05-05T11:48:13.254Z,25.60
2023-05-05T11:50:40.796Z,25.90
2023-05-05T11:53:08.105Z,26.20
2023-05-05T11:55:34.987Z,26.30
2023-05-05T11:58:17.340Z,25.90
2023-05-05T12:00:45.791Z,25.50
2023-05-05T12:03:12.846Z,25.00
2023-05-05T12:05:40.723Z,24.80
2023-05-05T12:08:07.767Z,24.70
2023-05-05T12:10:34.685Z,24.60
2023-05-05T12:13:01.707Z,24.60
2023-05-05T12:15:32.571Z,24.30
2023-05-05T12:18:02.084Z,24.30
2023-05-05T12:20:32.193Z,24.20
2023-05-05T12:23:05.312Z,24.30
2023-05-05T12:25:36.933Z,24.20
2023-05-05T12:28:06.696Z,24.20
2023-05-05T12:30:34.182Z,24.20
2023-05-05T12:33:06.213Z,24.10
2023-05-05T12:35:33.476Z,24.00
2023-05-05T12:38:00.444Z,23.90
2023-05-05T12:41:03.083Z,23.70
2023-05-05T12:43:34.964Z,23.60
2023-05-05T12:46:12.195Z,23.50
2023-05-05T12:48:41.505Z,23.50
2023-05-05T12:51:23.246Z,23.40
2023-05-05T12:54:03.509Z,23.50
2023-05-05T12:56:41.938Z,23.60
2023-05-05T12:59:10.394Z,23.60
2023-05-05T13:01:49.328Z,23.50
2023-05-05T13:04:16.511Z,23.60
2023-05-05T13:06:45.095Z,23.60
2023-05-05T13:09:28.312Z,23.60
2023-05-05T13:11:55.382Z,23.50
2023-05-05T13:14:23.160Z,23.20
2023-05-05T13:16:50.039Z,23.10
2023-05-05T13:19:17.074Z,22.80
2023-05-05T13:21:43.993Z,22.70
2023-05-05T13:24:21.522Z,22.50
2023-05-05T13:26:53.297Z,21.80
2023-05-05T13:29:20.365Z,20.10
2023-05-05T13:31:47.519Z,18.70
2023-05-05T13:34:14.446Z,17.60
2023-05-05T13:36:41.350Z,16.60
2023-05-05T13:39:09.013Z,16.00
2023-05-05T13:41:35.935Z,15.50
2023-05-05T13:44:02.890Z,15.20
2023-05-05T13:46:29.836Z,15.10
2023-05-05T13:48:57.025Z,15.10
2023-05-05T13:51:24.054Z,15.10
2023-05-05T13:53:50.991Z,15.30
2023-05-05T13:56:19.197Z,15.40
2023-05-05T13:58:46.441Z,15.60
2023-05-05T14:01:13.564Z,15.70
2023-05-05T14:03:40.611Z,15.80
2023-05-05T14:06:09.333Z,15.90
2023-05-05T14:08:36.553Z,15.80
2023-05-05T14:11:03.840Z,15.40
2023-05-05T14:13:30.994Z,15.20
2023-05-05T14:15:58.529Z,15.10
2023-05-05T14:18:26.010Z,15.30
2023-05-05T14:20:52.943Z,15.50
2023-05-05T14:23:19.826Z,15.60
2023-05-05T14:25:46.906Z,15.70
2023-05-05T14:28:13.870Z,15.80
2023-05-05T14:30:41.006Z,15.80
2023-05-05T14:33:07.970Z,15.90
2023-05-05T14:35:34.945Z,15.80
2023-05-05T14:38:02.018Z,15.80
2023-05-05T14:40:30.378Z,15.90
2023-05-05T14:42:57.914Z,16.10
2023-05-05T14:45:24.943Z,16.20
2023-05-05T14:47:51.913Z,16.40
2023-05-05T14:50:18.875Z,16.50
2023-05-05T14:52:45.826Z,16.60
2023-05-05T14:55:12.715Z,16.60
2023-05-05T14:57:39.803Z,16.70
2023-05-05T15:00:11.356Z,16.70
2023-05-05T15:02:38.272Z,16.70
2023-05-05T15:05:05.891Z,16.80
2023-05-05T15:07:32.845Z,16.80
2023-05-05T15:09:59.712Z,16.80
2023-05-05T15:12:26.952Z,16.80
2023-05-05T15:14:55.423Z,16.80
2023-05-05T15:17:23.679Z,16.90
2023-05-05T15:19:50.624Z,16.90
2023-05-05T15:22:17.795Z,16.80
2023-05-05T15:24:44.671Z,16.90
2023-05-05T15:27:11.616Z,16.90
2023-05-05T15:29:38.622Z,16.90
2023-05-05T15:32:05.938Z,16.90
2023-05-05T15:34:32.858Z,16.90
2023-05-05T15:36:59.739Z,16.90
2023-05-05T15:39:26.595Z,17.00
2023-05-05T15:41:53.636Z,17.00
2023-05-05T15:44:20.598Z,17.00
2023-05-05T15:46:50.245Z,17.00
2023-05-05T15:49:17.431Z,17.00
2023-05-05T15:51:44.330Z,17.00
2023-05-05T15:54:11.192Z,17.10
2023-05-05T15:56:38.138Z,17.00
2023-05-05T15:59:05.076Z,16.70
2023-05-05T16:01:33.694Z,16.40
2023-05-05T16:04:01.380Z,16.00
2023-05-05T16:06:28.517Z,15.70
2023-05-05T16:08:58.573Z,15.50
2023-05-05T16:11:26.626Z,15.20
2023-05-05T16:13:53.729Z,14.90
2023-05-05T16:16:20.924Z,14.50
2023-05-05T16:18:48.093Z,14.10
2023-05-05T16:21:15.122Z,13.90
2023-05-05T16:23:42.165Z,13.70
2023-05-05T16:26:09.076Z,13.60
2023-05-05T16:28:36.056Z,13.50
2023-05-05T16:31:03.047Z,13.40
2023-05-05T16:33:30.112Z,13.30
2023-05-05T16:35:56.980Z,13.20
2023-05-05T16:38:23.904Z,13.20
2023-05-05T16:40:50.862Z,13.10
2023-05-05T16:43:18.689Z,13.00
2023-05-05T16:45:46.685Z,12.90
2023-05-05T16:48:14.794Z,13.00
2023-05-05T16:50:41.780Z,12.90
2023-05-05T16:53:10.093Z,12.90
2023-05-05T16:55:37.515Z,12.90
2023-05-05T16:58:04.537Z,12.80
2023-05-05T17:00:31.458Z,12.80
2023-05-05T17:02:58.500Z,12.80
2023-05-05T17:05:25.529Z,12.70
2023-05-05T17:07:52.513Z,12.70
2023-05-05T17:10:19.464Z,12.70
2023-05-05T17:12:46.413Z,12.70
2023-05-05T17:15:13.372Z,12.60
2023-05-05T17:17:42.344Z,12.60
2023-05-05T17:20:11.052Z,12.70
2023-05-05T17:22:38.141Z,12.70
2023-05-05T17:25:05.369Z,12.70
2023-05-05T17:27:32.387Z,12.70
2023-05-05T17:29:59.447Z,12.80
2023-05-05T17:32:26.585Z,12.70
2023-05-05T17:34:53.525Z,12.80
2023-05-05T17:37:20.420Z,12.70
2023-05-05T17:39:47.515Z,12.70
2023-05-05T17:42:16.625Z,12.70
2023-05-05T17:44:44.064Z,12.70
2023-05-05T17:47:11.941Z,12.70
2023-05-05T17:49:38.842Z,12.60
2023-05-05T17:52:05.748Z,12.60
2023-05-05T17:54:32.722Z,12.50
2023-05-05T17:56:59.742Z,12.50
2023-05-05T17:59:26.620Z,12.50
2023-05-05T18:01:53.487Z,12.40
2023-05-05T18:04:20.486Z,12.40
2023-05-05T18:06:47.316Z,12.40
2023-05-05T18:09:14.256Z,12.40
2023-05-05T18:11:42.258Z,12.30
2023-05-05T18:14:10.948Z,12.30
2023-05-05T18:16:37.888Z,12.30
2023-05-05T18:19:04.808Z,12.30
2023-05-05T18:21:32.105Z,12.30
2023-05-05T18:24:07.654Z,12.30
2023-05-05T18:26:42.015Z,12.40
2023-05-05T18:29:09.040Z,12.40
2023-05-05T18:31:36.023Z,12.40
2023-05-05T18:34:02.961Z,12.30
2023-05-05T18:36:29.866Z,12.30
2023-05-05T18:38:56.814Z,12.30
2023-05-05T18:41:23.747Z,12.30
2023-05-05T18:43:50.790Z,12.30
2023-05-05T18:46:17.858Z,12.30
2023-05-05T18:48:44.967Z,12.30
2023-05-05T18:51:11.840Z,12.30
2023-05-05T18:53:38.723Z,12.30
2023-05-05T18:56:05.778Z,12.30
2023-05-05T18:58:32.676Z,12.40
2023-05-05T19:00:59.738Z,12.30
2023-05-05T19:03:26.815Z,12.20
2023-05-05T19:05:54.247Z,12.20
2023-05-05T19:08:21.374Z,12.10
2023-05-05T19:10:48.358Z,12.10
2023-05-05T19:13:15.532Z,12.00
2023-05-05T19:15:42.509Z,11.90
2023-05-05T19:18:09.574Z,11.90
2023-05-05T19:20:38.609Z,11.90
2023-05-05T19:23:06.803Z,11.90
2023-05-05T19:25:34.092Z,11.80
2023-05-05T19:28:01.130Z,11.70
2023-05-05T19:30:28.116Z,11.70
2023-05-05T19:32:55.181Z,11.70
2023-05-05T19:35:22.418Z,11.60
2023-05-05T19:37:49.297Z,11.60
2023-05-05T19:40:16.201Z,11.60
2023-05-05T19:42:43.132Z,11.60
2023-05-05T19:45:10.117Z,11.50
2023-05-05T19:47:37.115Z,11.50
2023-05-05T19:50:04.729Z,11.40
2023-05-05T19:52:31.749Z,11.40
2023-05-05T19:54:59.218Z,11.40
2023-05-05T19:57:26.426Z,11.40
2023-05-05T19:59:53.329Z,11.40
2023-05-05T20:02:22.140Z,11.30
2023-05-05T20:04:49.665Z,11.20
2023-05-05T20:07:17.918Z,11.20
2023-05-05T20:09:45.154Z,11.10
2023-05-05T20:12:12.310Z,11.10
2023-05-05T20:14:40.704Z,11.10
2023-05-05T20:17:08.082Z,11.20
2023-05-05T20:19:34.993Z,11.30
2023-05-05T20:22:01.933Z,11.40
2023-05-05T20:24:29.800Z,11.40
2023-05-05T20:26:56.773Z,11.50
2023-05-05T20:29:23.660Z,11.40
2023-05-05T20:31:50.729Z,11.40
2023-05-05T20:34:17.801Z,11.40
2023-05-05T20:36:44.760Z,11.50
2023-05-05T20:39:15.675Z,11.40
2023-05-05T20:41:42.739Z,11.40
2023-05-05T20:44:10.314Z,11.40
2023-05-05T20:46:37.644Z,11.40
2023-05-05T20:49:04.707Z,11.30
2023-05-05T20:51:34.294Z,11.40
2023-05-05T20:54:02.288Z,11.40
2023-05-05T20:56:29.156Z,11.40
2023-05-05T20:58:56.861Z,11.40
2023-05-05T21:01:23.821Z,11.40
2023-05-05T21:03:50.862Z,11.30
2023-05-05T21:06:19.593Z,11.30
2023-05-05T21:08:47.281Z,11.30
2023-05-05T21:11:14.222Z,11.20
2023-05-05T21:13:41.108Z,11.10
2023-05-05T21:16:08.059Z,11.00
2023-05-05T21:18:35.019Z,11.00
2023-05-05T21:21:02.097Z,10.90
2023-05-05T21:23:29.005Z,10.90
2023-05-05T21:25:55.951Z,10.80
2023-05-05T21:28:22.811Z,10.70
2023-05-05T21:31:10.266Z,10.70
2023-05-05T21:33:38.484Z,10.60
2023-05-05T21:36:06.591Z,10.50
2023-05-05T21:38:33.523Z,10.50
2023-05-05T21:41:00.437Z,10.40
2023-05-05T21:43:30.294Z,10.30
2023-05-05T21:46:04.315Z,10.30
2023-05-05T21:48:31.484Z,10.30
2023-05-05T21:50:58.505Z,10.50
2023-05-05T21:53:25.459Z,10.50
2023-05-05T21:55:52.324Z,10.50
2023-05-05T21:58:19.315Z,10.40
2023-05-05T22:00:49.926Z,10.40
2023-05-05T22:03:17.517Z,10.30
2023-05-05T22:05:44.665Z,10.20
2023-05-05T22:08:11.590Z,10.20
2023-05-05T22:10:39.556Z,10.20
2023-05-05T22:13:06.611Z,10.20
2023-05-05T22:15:43.038Z,10.20
2023-05-05T22:18:14.047Z,10.20
2023-05-05T22:20:41.263Z,10.10
2023-05-05T22:23:08.331Z,10.10
2023-05-05T22:25:35.823Z,10.10
2023-05-05T22:28:04.860Z,10.10
2023-05-05T22:30:31.956Z,10.10
2023-05-05T22:32:58.949Z,10.10
2023-05-05T22:35:25.932Z,10.00
2023-05-05T22:37:52.967Z,10.00
2023-05-05T22:40:19.837Z,9.90
2023-05-05T22:42:46.860Z,9.90
2023-05-05T22:45:13.990Z,9.90
2023-05-05T22:47:41.135Z,9.90
2023-05-05T22:50:09.136Z,9.80
2023-05-05T22:52:36.721Z,9.90
2023-05-05T22:55:03.884Z,9.90
2023-05-05T22:57:30.902Z,9.90
2023-05-05T22:59:57.918Z,9.90
2023-05-05T23:02:26.807Z,9.90
2023-05-05T23:04:53.980Z,9.90
2023-05-05T23:07:20.940Z,9.90
2023-05-05T23:09:48.032Z,9.80
2023-05-05T23:12:14.938Z,9.80
2023-05-05T23:14:41.968Z,9.90
2023-05-05T23:17:09.207Z,9.90
2023-05-05T23:19:36.638Z,9.90
2023-05-05T23:22:04.430Z,9.90
2023-05-05T23:24:31.763Z,9.90
2023-05-05T23:27:02.210Z,9.90
2023-05-05T23:29:29.435Z,10.00
2023-05-05T23:31:57.038Z,10.00
2023-05-05T23:34:25.521Z,10.00
2023-05-05T23:36:52.553Z,10.00
2023-05-05T23:39:19.514Z,10.00
2023-05-05T23:41:46.443Z,10.00
2023-05-05T23:44:13.602Z,9.90
2023-05-05T23:46:40.696Z,9.90
2023-05-05T23:49:08.446Z,9.90
2023-05-05T23:51:35.736Z,9.90
2023-05-05T23:54:02.733Z,9.90
2023-05-05T23:56:29.738Z,9.80
2023-05-05T23:58:56.796Z,9.80
